Terminal Aerodrome Forecast
Issued by NWS

Home | Current Version | Previous Version | Text Only | Print | Product List | Glossary On
Versions: 1 2 3 4 5 6 7 8 9 10 11 12 13 14 15 16 17 18 19 20 21 22 23
000
FTUS43 KIND 270500
TAFBMG
TAF
KBMG 270531Z 2706/2806 03007KT P6SM OVC045
      TEMPO 2706/2708 5SM -SN OVC040
     FM270900 35008KT P6SM BKN020 OVC080
     FM271600 31012KT P6SM OVC025
     FM280300 31007KT P6SM SCT100 BKN250
      AMD LTD TO CLD VIS AND WIND TIL 271400=

USA.gov is the U.S. government's official web portal to all federal, state and local government web resources and services.